Time;durP1;ratioP1;P1;durP2;ratioP2;P2;SDS_P1;SDS_P2;PMS_P1;PMS_P2;Temp;Humidity;BMP_temperature;BMP_pressure;BME280_temperature;BME280_humidity;BME280_pressure;Samples;Min_cycle;Max_cycle;Signal;HPM_P1;HPM_P2
2022/02/15 00:00:05;;;;;;;8.50;3.22;;;;;;;;;;1677968;85;21116;-65
2022/02/15 00:02:34;;;;;;;8.70;4.08;;;;;;;;;;1677813;85;21107;-65
2022/02/15 00:05:00;;;;;;;8.18;4.03;;;;;;;;;;1690868;85;21064;-66
2022/02/15 00:07:25;;;;;;;6.95;3.95;;;;;;;;;;1691262;85;21501;-66
2022/02/15 00:09:53;;;;;;;4.53;3.00;;;;;;;;;;1655518;86;21075;-65
2022/02/15 00:12:19;;;;;;;8.83;4.80;;;;;;;;;;1691188;85;21534;-66
2022/02/15 00:14:44;;;;;;;7.30;3.90;;;;;;;;;;1661934;86;21041;-66
2022/02/15 00:17:10;;;;;;;7.85;3.90;;;;;;;;;;1691350;85;21637;-66
2022/02/15 00:19:36;;;;;;;7.80;3.85;;;;;;;;;;1691943;85;21073;-66
2022/02/15 00:22:03;;;;;;;6.95;3.95;;;;;;;;;;1691614;85;21557;-66
2022/02/15 00:24:29;;;;;;;9.60;4.50;;;;;;;;;;1684687;85;21103;-66
2022/02/15 00:26:55;;;;;;;8.80;4.92;;;;;;;;;;1678532;85;21124;-66
2022/02/15 00:29:22;;;;;;;7.67;3.90;;;;;;;;;;1678459;85;21037;-65
2022/02/15 00:31:48;;;;;;;9.63;3.87;;;;;;;;;;1678393;85;22144;-66
2022/02/15 00:34:14;;;;;;;8.18;4.40;;;;;;;;;;1678511;85;21020;-65
2022/02/15 00:36:41;;;;;;;7.30;3.77;;;;;;;;;;1678418;85;21064;-66
2022/02/15 00:39:09;;;;;;;6.20;3.35;;;;;;;;;;1678112;85;21047;-66
2022/02/15 00:41:35;;;;;;;6.50;3.92;;;;;;;;;;1678296;85;21075;-66
2022/02/15 00:44:01;;;;;;;6.53;3.12;;;;;;;;;;1678316;85;21514;-65
2022/02/15 00:46:30;;;;;;;9.45;3.52;;;;;;;;;;1660577;86;21099;-65
2022/02/15 00:48:56;;;;;;;5.58;3.45;;;;;;;;;;1702082;84;21050;-66
2022/02/15 00:51:22;;;;;;;5.33;3.10;;;;;;;;;;1691130;85;22095;-66
2022/02/15 00:53:48;;;;;;;9.65;4.30;;;;;;;;;;1691068;85;21056;-66
2022/02/15 00:56:14;;;;;;;9.28;4.03;;;;;;;;;;1703168;83;21621;-66
2022/02/15 00:58:41;;;;;;;5.12;3.08;;;;;;;;;;1698829;83;21157;-66
2022/02/15 01:01:07;;;;;;;4.58;2.90;;;;;;;;;;1658771;85;21062;-66
2022/02/15 01:03:32;;;;;;;5.15;2.80;;;;;;;;;;1691087;84;21048;-66
2022/02/15 01:05:59;;;;;;;4.47;2.42;;;;;;;;;;1691030;85;21088;-66
2022/02/15 01:08:26;;;;;;;6.55;2.98;;;;;;;;;;1656397;86;21045;-66
2022/02/15 01:10:52;;;;;;;5.95;3.45;;;;;;;;;;1680811;84;21071;-66
2022/02/15 01:13:19;;;;;;;6.30;3.87;;;;;;;;;;1675514;85;21022;-65
2022/02/15 01:15:45;;;;;;;5.40;2.95;;;;;;;;;;1670933;84;21060;-64
2022/02/15 01:18:12;;;;;;;7.17;3.60;;;;;;;;;;1710563;83;20967;-66
2022/02/15 01:20:39;;;;;;;6.95;3.83;;;;;;;;;;1720167;83;21104;-66
2022/02/15 01:23:05;;;;;;;6.42;3.47;;;;;;;;;;1719735;83;21564;-66
2022/02/15 01:25:31;;;;;;;7.60;3.85;;;;;;;;;;1701439;84;21108;-66
2022/02/15 01:27:57;;;;;;;5.17;3.27;;;;;;;;;;1682986;84;21102;-66
2022/02/15 01:30:23;;;;;;;6.75;3.67;;;;;;;;;;1702880;84;21021;-65
2022/02/15 01:32:49;;;;;;;7.83;4.10;;;;;;;;;;1703011;84;21052;-66
2022/02/15 01:35:15;;;;;;;5.58;2.83;;;;;;;;;;1712372;83;21540;-66
2022/02/15 01:37:42;;;;;;;7.90;3.58;;;;;;;;;;1717101;83;21540;-66
2022/02/15 01:40:09;;;;;;;6.53;3.15;;;;;;;;;;1720138;83;21052;-65
2022/02/15 01:42:35;;;;;;;7.65;3.95;;;;;;;;;;1720602;83;21024;-66
2022/02/15 01:45:03;;;;;;;9.98;4.08;;;;;;;;;;1711217;83;21052;-66
2022/02/15 01:47:29;;;;;;;7.22;4.03;;;;;;;;;;1703040;84;21044;-65
2022/02/15 01:49:56;;;;;;;6.20;3.17;;;;;;;;;;1712190;83;21016;-66
2022/02/15 01:52:23;;;;;;;8.73;3.87;;;;;;;;;;1687574;83;21072;-65
2022/02/15 01:54:49;;;;;;;6.72;3.92;;;;;;;;;;1677752;85;21054;-66
2022/02/15 01:57:16;;;;;;;10.50;4.55;;;;;;;;;;1655090;87;21066;-66
2022/02/15 01:59:44;;;;;;;6.85;3.55;;;;;;;;;;1719988;82;21125;-66
2022/02/15 02:07:45;;;;;;;9.05;4.22;;;;;;;;;;1692282;83;21541;-66
2022/02/15 02:10:12;;;;;;;6.03;3.25;;;;;;;;;;1686717;84;21023;-66
2022/02/15 02:12:39;;;;;;;9.10;3.62;;;;;;;;;;1660544;86;21066;-66
2022/02/15 02:15:07;;;;;;;4.28;2.77;;;;;;;;;;1678496;83;21056;-67
2022/02/15 02:17:35;;;;;;;10.60;4.60;;;;;;;;;;1684623;85;21531;-66
2022/02/15 02:20:02;;;;;;;9.48;4.12;;;;;;;;;;1688380;85;21009;-66
2022/02/15 02:22:29;;;;;;;8.50;4.05;;;;;;;;;;1683870;85;21071;-66
2022/02/15 02:24:55;;;;;;;9.58;4.67;;;;;;;;;;1690968;83;21060;-66
2022/02/15 02:27:28;;;;;;;6.60;3.45;;;;;;;;;;1688754;83;21048;-65
2022/02/15 02:29:54;;;;;;;10.43;4.00;;;;;;;;;;1688516;85;21542;-66
2022/02/15 02:32:22;;;;;;;5.72;3.40;;;;;;;;;;1684835;85;21574;-66
2022/02/15 02:34:49;;;;;;;7.78;4.65;;;;;;;;;;1686124;83;21068;-66
2022/02/15 02:37:15;;;;;;;6.28;3.25;;;;;;;;;;1688400;85;21558;-66
2022/02/15 02:39:43;;;;;;;10.58;3.90;;;;;;;;;;1687605;85;21007;-66
2022/02/15 02:42:11;;;;;;;7.47;3.85;;;;;;;;;;1664286;85;21029;-66
2022/02/15 02:44:38;;;;;;;5.40;2.95;;;;;;;;;;1678001;83;21072;-65
2022/02/15 02:47:05;;;;;;;6.80;3.12;;;;;;;;;;1680853;84;21045;-66
2022/02/15 02:49:32;;;;;;;5.80;3.50;;;;;;;;;;1662562;85;21049;-67
2022/02/15 02:51:58;;;;;;;7.08;3.00;;;;;;;;;;1682680;85;21533;-65
2022/02/15 02:54:25;;;;;;;11.25;3.70;;;;;;;;;;1691250;83;21605;-66
2022/02/15 02:56:53;;;;;;;6.30;3.40;;;;;;;;;;1721524;83;21076;-66
2022/02/15 02:59:20;;;;;;;5.45;3.12;;;;;;;;;;1720986;83;21033;-66
2022/02/15 03:01:46;;;;;;;7.83;3.27;;;;;;;;;;1685365;83;21588;-66
2022/02/15 03:04:13;;;;;;;7.50;3.60;;;;;;;;;;1694950;83;21592;-66
2022/02/15 03:06:40;;;;;;;9.03;4.03;;;;;;;;;;1663413;86;21026;-66
2022/02/15 03:09:08;;;;;;;7.50;3.27;;;;;;;;;;1663357;86;21055;-66
2022/02/15 03:11:34;;;;;;;7.85;3.22;;;;;;;;;;1653722;86;21059;-66
2022/02/15 03:14:00;;;;;;;5.87;3.15;;;;;;;;;;1641422;86;21085;-66
2022/02/15 03:16:28;;;;;;;8.35;4.50;;;;;;;;;;1662833;86;21034;-66
2022/02/15 03:18:55;;;;;;;7.12;3.72;;;;;;;;;;1663444;86;21033;-66
2022/02/15 03:21:22;;;;;;;6.90;3.15;;;;;;;;;;1654997;86;21071;-66
2022/02/15 03:23:49;;;;;;;7.97;3.77;;;;;;;;;;1657407;86;21101;-66
2022/02/15 03:26:16;;;;;;;7.45;3.65;;;;;;;;;;1691634;85;21044;-66
2022/02/15 03:28:42;;;;;;;6.47;3.33;;;;;;;;;;1691755;85;21078;-66
2022/02/15 03:31:09;;;;;;;5.40;3.15;;;;;;;;;;1678876;85;21045;-65
2022/02/15 03:33:35;;;;;;;6.30;2.87;;;;;;;;;;1670073;85;21013;-66
2022/02/15 03:36:02;;;;;;;6.10;3.27;;;;;;;;;;1691907;85;21581;-66
2022/02/15 03:38:28;;;;;;;6.12;3.08;;;;;;;;;;1691791;85;21098;-66
2022/02/15 03:43:44;;;;;;;5.03;3.02;;;;;;;;;;1659220;85;21106;-66
2022/02/15 03:46:11;;;;;;;6.42;3.52;;;;;;;;;;1607663;88;21569;-66
2022/02/15 03:48:39;;;;;;;11.40;3.98;;;;;;;;;;1620003;88;21029;-66
2022/02/15 03:51:06;;;;;;;7.12;3.70;;;;;;;;;;1622049;88;21121;-66
2022/02/15 03:53:34;;;;;;;4.72;2.90;;;;;;;;;;1658516;85;21006;-66
2022/02/15 03:56:02;;;;;;;6.03;3.47;;;;;;;;;;1663628;86;21046;-66
2022/02/15 03:58:29;;;;;;;6.87;3.42;;;;;;;;;;1663466;86;21086;-65
2022/02/15 04:00:56;;;;;;;8.08;4.67;;;;;;;;;;1662838;86;21067;-65
2022/02/15 04:03:24;;;;;;;7.30;3.62;;;;;;;;;;1663349;86;22128;-66
2022/02/15 04:05:50;;;;;;;6.60;3.85;;;;;;;;;;1665942;86;21025;-65
2022/02/15 04:08:17;;;;;;;9.63;4.90;;;;;;;;;;1666402;86;21060;-67
2022/02/15 04:11:02;;;;;;;5.55;3.27;;;;;;;;;;1659219;86;22126;-66
2022/02/15 04:13:31;;;;;;;8.90;3.80;;;;;;;;;;1660669;85;21116;-65
2022/02/15 04:15:58;;;;;;;6.22;3.58;;;;;;;;;;1666628;86;21038;-68
2022/02/15 04:18:24;;;;;;;6.08;2.98;;;;;;;;;;1666071;86;21069;-65
2022/02/15 04:20:50;;;;;;;9.15;3.92;;;;;;;;;;1666710;86;21006;-66
2022/02/15 04:23:15;;;;;;;6.53;3.60;;;;;;;;;;1667226;85;21020;-66
2022/02/15 04:25:42;;;;;;;7.10;3.90;;;;;;;;;;1666649;86;21454;-65
2022/02/15 04:28:10;;;;;;;9.70;3.95;;;;;;;;;;1655688;86;21023;-66
2022/02/15 04:30:36;;;;;;;7.75;4.65;;;;;;;;;;1652602;87;21042;-66
2022/02/15 04:33:02;;;;;;;7.05;3.58;;;;;;;;;;1629594;86;21089;-66
2022/02/15 04:35:30;;;;;;;9.95;4.55;;;;;;;;;;1666288;86;21029;-64
2022/02/15 04:37:56;;;;;;;8.95;4.20;;;;;;;;;;1665721;86;21091;-66
2022/02/15 04:40:22;;;;;;;8.93;4.15;;;;;;;;;;1665117;86;21097;-65
2022/02/15 04:42:49;;;;;;;8.43;3.60;;;;;;;;;;1665177;86;21111;-66
2022/02/15 04:45:15;;;;;;;9.15;4.33;;;;;;;;;;1666486;86;21046;-66
2022/02/15 04:47:43;;;;;;;6.00;3.52;;;;;;;;;;1665936;86;21086;-66
2022/02/15 04:50:09;;;;;;;6.28;3.20;;;;;;;;;;1666608;86;21045;-66
2022/02/15 04:52:35;;;;;;;9.35;4.55;;;;;;;;;;1666360;86;21613;-65
2022/02/15 04:55:01;;;;;;;5.00;3.27;;;;;;;;;;1654922;86;21001;-65
2022/02/15 04:57:27;;;;;;;7.90;3.80;;;;;;;;;;1653205;86;21527;-66
2022/02/15 04:59:54;;;;;;;6.85;3.05;;;;;;;;;;1626266;86;21006;-65
2022/02/15 05:02:22;;;;;;;5.47;2.60;;;;;;;;;;1651963;86;21096;-65
2022/02/15 05:04:50;;;;;;;8.50;3.60;;;;;;;;;;1649492;86;21568;-66
2022/02/15 05:07:20;;;;;;;2.98;2.45;;;;;;;;;;1649508;85;21560;-66
2022/02/15 05:09:46;;;;;;;5.55;3.10;;;;;;;;;;1660175;85;21668;-66
2022/02/15 05:12:15;;;;;;;3.62;2.60;;;;;;;;;;1625374;88;21061;-66
2022/02/15 05:14:42;;;;;;;6.33;3.00;;;;;;;;;;1624212;87;21105;-65
2022/02/15 05:17:09;;;;;;;5.33;2.83;;;;;;;;;;1649433;85;21108;-66
2022/02/15 05:19:36;;;;;;;8.25;3.65;;;;;;;;;;1663010;85;21017;-66
2022/02/15 05:22:06;;;;;;;4.65;2.52;;;;;;;;;;1657110;85;21041;-66
2022/02/15 05:24:33;;;;;;;6.45;3.27;;;;;;;;;;1629497;86;21138;-66
2022/02/15 05:27:01;;;;;;;7.40;3.60;;;;;;;;;;1689206;83;21050;-66
2022/02/15 05:29:38;;;;;;;8.05;4.15;;;;;;;;;;1683648;85;20996;-66
2022/02/15 05:32:21;;;;;;;6.15;3.12;;;;;;;;;;1686891;85;21116;-66
2022/02/15 05:34:47;;;;;;;9.10;4.80;;;;;;;;;;1692563;83;21013;-65
2022/02/15 05:37:15;;;;;;;7.08;3.77;;;;;;;;;;1704760;83;21538;-66
2022/02/15 05:39:43;;;;;;;8.85;3.85;;;;;;;;;;1700972;83;20997;-66
2022/02/15 05:42:09;;;;;;;9.63;4.20;;;;;;;;;;1686733;85;21554;-65
2022/02/15 05:44:36;;;;;;;6.15;3.45;;;;;;;;;;1686565;85;21074;-65
2022/02/15 05:47:04;;;;;;;9.18;4.40;;;;;;;;;;1689657;83;21511;-65
2022/02/15 05:49:31;;;;;;;7.12;3.42;;;;;;;;;;1643306;86;21068;-66
2022/02/15 05:52:05;;;;;;;6.97;3.52;;;;;;;;;;1689169;85;21604;-66
2022/02/15 05:54:32;;;;;;;7.72;4.03;;;;;;;;;;1689631;84;21013;-66
2022/02/15 05:57:00;;;;;;;6.28;3.62;;;;;;;;;;1689217;83;21543;-66
2022/02/15 05:59:31;;;;;;;8.70;4.20;;;;;;;;;;1692294;83;21025;-75
2022/02/15 06:02:02;;;;;;;3.52;2.47;;;;;;;;;;1689825;83;21051;-70
2022/02/15 06:04:47;;;;;;;8.70;3.62;;;;;;;;;;1690192;83;21072;-66
2022/02/15 06:07:15;;;;;;;4.97;2.77;;;;;;;;;;1707903;83;21033;-66
2022/02/15 06:09:41;;;;;;;8.38;4.05;;;;;;;;;;1716393;83;21068;-66
2022/02/15 06:12:09;;;;;;;8.73;3.42;;;;;;;;;;1711977;83;21062;-65
2022/02/15 06:14:38;;;;;;;10.40;4.92;;;;;;;;;;1699690;84;21072;-65
2022/02/15 06:17:06;;;;;;;7.85;4.00;;;;;;;;;;1691546;84;21067;-65
2022/02/15 06:19:32;;;;;;;9.05;5.00;;;;;;;;;;1699835;84;21529;-67
2022/02/15 06:21:58;;;;;;;5.97;3.60;;;;;;;;;;1676111;84;21064;-66
2022/02/15 06:24:26;;;;;;;8.25;4.75;;;;;;;;;;1697621;84;21089;-66
2022/02/15 06:26:55;;;;;;;12.30;4.30;;;;;;;;;;1698431;83;21516;-67
2022/02/15 06:29:32;;;;;;;8.95;4.05;;;;;;;;;;1663936;86;21042;-66
2022/02/15 06:32:04;;;;;;;8.20;4.10;;;;;;;;;;1664120;86;21037;-67
2022/02/15 06:34:31;;;;;;;6.05;3.40;;;;;;;;;;1691654;84;21063;-66
2022/02/15 06:36:59;;;;;;;6.40;3.50;;;;;;;;;;1682667;84;21560;-65
2022/02/15 06:39:26;;;;;;;8.03;4.10;;;;;;;;;;1645381;85;21532;-65
2022/02/15 06:41:55;;;;;;;8.88;3.52;;;;;;;;;;1673952;85;21041;-65
2022/02/15 06:44:21;;;;;;;8.25;4.67;;;;;;;;;;1664214;86;21009;-66
2022/02/15 06:46:48;;;;;;;11.12;5.17;;;;;;;;;;1666171;85;21052;-66
2022/02/15 06:49:19;;;;;;;8.00;4.55;;;;;;;;;;1662593;86;21068;-73
2022/02/15 06:51:46;;;;;;;8.58;4.12;;;;;;;;;;1660758;86;20994;-73
2022/02/15 06:54:13;;;;;;;8.78;4.25;;;;;;;;;;1660584;85;21086;-72
2022/02/15 06:56:50;;;;;;;9.35;5.03;;;;;;;;;;1611918;88;21149;-71
2022/02/15 06:59:24;;;;;;;7.67;3.55;;;;;;;;;;1635654;88;22162;-71
2022/02/15 07:01:51;;;;;;;8.25;4.50;;;;;;;;;;1661691;85;20986;-72
2022/02/15 07:04:17;;;;;;;9.73;5.40;;;;;;;;;;1668310;85;21093;-74
2022/02/15 07:06:44;;;;;;;9.20;4.65;;;;;;;;;;1641310;85;21031;-74
2022/02/15 07:09:12;;;;;;;11.38;5.33;;;;;;;;;;1634478;86;21069;-73
2022/02/15 07:11:40;;;;;;;13.30;5.62;;;;;;;;;;1635391;87;21111;-73
2022/02/15 07:14:06;;;;;;;8.43;4.90;;;;;;;;;;1630202;86;21585;-69
2022/02/15 07:16:34;;;;;;;10.03;5.08;;;;;;;;;;1685283;83;21038;-69
2022/02/15 07:19:02;;;;;;;11.57;5.97;;;;;;;;;;1696257;83;21097;-70
2022/02/15 07:21:47;;;;;;;13.65;6.17;;;;;;;;;;1681030;84;21046;-71
2022/02/15 07:24:32;;;;;;;10.43;5.90;;;;;;;;;;1688260;84;21025;-70
2022/02/15 07:27:03;;;;;;;12.75;6.60;;;;;;;;;;1695723;83;21573;-69
2022/02/15 07:30:30;;;;;;;8.88;4.78;;;;;;;;;;1814178;79;22739;-71
2022/02/15 07:32:58;;;;;;;7.58;4.17;;;;;;;;;;1777081;80;21064;-70
2022/02/15 07:35:24;;;;;;;7.00;3.92;;;;;;;;;;1771631;80;21559;-70
2022/02/15 07:37:50;;;;;;;8.05;4.80;;;;;;;;;;1771156;80;21046;-70
2022/02/15 07:40:21;;;;;;;8.98;4.37;;;;;;;;;;1778054;80;21040;-70
2022/02/15 07:42:48;;;;;;;10.08;4.00;;;;;;;;;;1772390;81;21012;-69
2022/02/15 07:45:18;;;;;;;8.43;3.72;;;;;;;;;;1774039;80;21071;-70
2022/02/15 07:47:42;;;;;;;6.00;3.65;;;;;;;;;;1780774;80;21043;-70
2022/02/15 07:50:08;;;;;;;9.40;4.47;;;;;;;;;;1779545;80;21028;-71
2022/02/15 07:52:34;;;;;;;8.20;4.47;;;;;;;;;;1785323;80;21568;-70
2022/02/15 07:55:00;;;;;;;8.43;4.90;;;;;;;;;;1763075;80;21047;-69
2022/02/15 07:57:26;;;;;;;6.25;4.05;;;;;;;;;;1778793;80;21504;-70
2022/02/15 07:59:53;;;;;;;7.28;3.70;;;;;;;;;;1779167;80;21035;-69
2022/02/15 08:02:20;;;;;;;7.75;4.12;;;;;;;;;;1781054;80;21052;-70
2022/02/15 08:04:46;;;;;;;8.53;4.80;;;;;;;;;;1747117;81;21039;-70
2022/02/15 08:07:12;;;;;;;8.78;5.50;;;;;;;;;;1720226;83;21064;-70
2022/02/15 08:09:38;;;;;;;12.15;5.17;;;;;;;;;;1689865;84;21053;-71
2022/02/15 08:12:09;;;;;;;8.05;3.92;;;;;;;;;;1688938;85;21598;-69
2022/02/15 08:14:35;;;;;;;6.30;3.55;;;;;;;;;;1689869;84;21120;-70
2022/02/15 08:17:01;;;;;;;6.65;3.62;;;;;;;;;;1682796;85;21057;-70
2022/02/15 08:19:27;;;;;;;6.33;3.12;;;;;;;;;;1690080;85;21036;-68
2022/02/15 08:21:54;;;;;;;7.78;3.95;;;;;;;;;;1685244;84;21047;-69
2022/02/15 08:24:21;;;;;;;5.72;3.05;;;;;;;;;;1688833;84;21108;-69
2022/02/15 08:26:47;;;;;;;8.05;4.33;;;;;;;;;;1691386;84;20994;-68
2022/02/15 08:29:13;;;;;;;10.15;4.60;;;;;;;;;;1666710;85;21627;-70
2022/02/15 08:31:39;;;;;;;6.25;3.42;;;;;;;;;;1740562;82;21071;-69
2022/02/15 08:34:05;;;;;;;8.88;3.85;;;;;;;;;;1734856;81;21024;-67
2022/02/15 08:36:31;;;;;;;6.50;3.83;;;;;;;;;;1740209;82;21048;-69
2022/02/15 08:38:57;;;;;;;6.70;3.85;;;;;;;;;;1705385;84;21076;-69
2022/02/15 08:41:23;;;;;;;6.87;4.22;;;;;;;;;;1690332;84;21080;-70
2022/02/15 08:43:51;;;;;;;4.87;3.00;;;;;;;;;;1691734;84;21508;-70
2022/02/15 08:46:17;;;;;;;6.25;3.67;;;;;;;;;;1698767;83;21062;-70
2022/02/15 08:48:43;;;;;;;12.85;6.80;;;;;;;;;;1731807;82;21051;-69
2022/02/15 08:51:09;;;;;;;6.45;4.08;;;;;;;;;;1693780;84;21039;-68
2022/02/15 08:53:35;;;;;;;6.20;3.47;;;;;;;;;;1741685;81;21507;-70
2022/02/15 08:56:03;;;;;;;4.08;2.90;;;;;;;;;;1742350;82;21034;-70
2022/02/15 08:58:28;;;;;;;5.55;3.27;;;;;;;;;;1701376;84;21650;-70
2022/02/15 09:01:00;;;;;;;5.78;3.15;;;;;;;;;;1693390;85;21045;-70
2022/02/15 09:03:24;;;;;;;6.55;3.77;;;;;;;;;;1693949;84;21110;-69
2022/02/15 09:05:50;;;;;;;4.22;2.72;;;;;;;;;;1671326;85;21581;-69
2022/02/15 09:08:16;;;;;;;5.80;3.37;;;;;;;;;;1693533;85;21033;-70
2022/02/15 09:10:42;;;;;;;8.45;3.60;;;;;;;;;;1678299;85;21081;-70
2022/02/15 09:13:08;;;;;;;5.72;3.17;;;;;;;;;;1678111;85;21022;-71
2022/02/15 09:15:34;;;;;;;5.87;3.22;;;;;;;;;;1678227;85;21052;-69
2022/02/15 09:18:00;;;;;;;6.92;3.42;;;;;;;;;;1698612;83;20988;-70
2022/02/15 09:20:26;;;;;;;4.50;2.60;;;;;;;;;;1695288;84;21044;-70
2022/02/15 09:22:52;;;;;;;6.67;3.52;;;;;;;;;;1693750;85;21044;-70
2022/02/15 09:25:18;;;;;;;5.78;2.37;;;;;;;;;;1668284;85;21004;-70
2022/02/15 09:27:44;;;;;;;7.15;3.35;;;;;;;;;;1661291;85;21025;-70
2022/02/15 09:30:10;;;;;;;6.33;3.02;;;;;;;;;;1727909;82;21028;-71
2022/02/15 09:32:36;;;;;;;11.50;3.87;;;;;;;;;;1717908;83;21012;-73
2022/02/15 09:35:03;;;;;;;6.15;2.62;;;;;;;;;;1720841;82;21785;-70
2022/02/15 09:37:29;;;;;;;7.40;3.80;;;;;;;;;;1683343;85;21107;-70
2022/02/15 09:40:00;;;;;;;4.12;2.55;;;;;;;;;;1679478;85;21083;-72
2022/02/15 09:42:25;;;;;;;5.62;3.12;;;;;;;;;;1689588;84;21044;-70
2022/02/15 09:44:51;;;;;;;6.78;3.40;;;;;;;;;;1681751;85;21018;-70
2022/02/15 09:47:19;;;;;;;4.50;2.55;;;;;;;;;;1737907;82;21035;-70
2022/02/15 09:49:51;;;;;;;6.17;2.67;;;;;;;;;;1728329;82;21044;-70
2022/02/15 09:52:18;;;;;;;5.25;3.00;;;;;;;;;;1690294;84;21043;-70
2022/02/15 09:54:45;;;;;;;7.65;4.05;;;;;;;;;;1723457;82;21049;-69
2022/02/15 09:57:12;;;;;;;4.53;2.72;;;;;;;;;;1687018;84;21067;-71
2022/02/15 09:59:38;;;;;;;5.22;2.80;;;;;;;;;;1663369;85;21038;-69
2022/02/15 10:02:05;;;;;;;4.70;2.50;;;;;;;;;;1666408;86;21142;-71
2022/02/15 10:04:33;;;;;;;3.92;2.70;;;;;;;;;;1678093;85;21053;-69
2022/02/15 10:06:59;;;;;;;6.30;3.30;;;;;;;;;;1699026;84;21053;-69
2022/02/15 10:09:27;;;;;;;4.80;2.65;;;;;;;;;;1709841;84;21009;-70
2022/02/15 10:12:04;;;;;;;4.00;2.27;;;;;;;;;;1745719;82;21000;-70
2022/02/15 10:14:30;;;;;;;8.25;4.45;;;;;;;;;;1745864;82;21000;-70
2022/02/15 10:16:56;;;;;;;4.08;2.30;;;;;;;;;;1740069;82;21005;-69
2022/02/15 10:19:26;;;;;;;7.00;3.85;;;;;;;;;;1735859;83;21599;-70
2022/02/15 10:21:56;;;;;;;5.80;3.08;;;;;;;;;;1698446;84;21078;-71
2022/02/15 10:24:23;;;;;;;7.20;3.95;;;;;;;;;;1678560;85;21017;-71
2022/02/15 10:26:54;;;;;;;5.25;2.65;;;;;;;;;;1740110;82;20981;-69
2022/02/15 10:29:21;;;;;;;6.42;2.70;;;;;;;;;;1744876;82;21083;-69
2022/02/15 10:31:47;;;;;;;5.62;2.58;;;;;;;;;;1741405;82;21039;-70
2022/02/15 10:34:13;;;;;;;5.10;2.58;;;;;;;;;;1741066;82;21055;-69
2022/02/15 10:36:39;;;;;;;6.42;3.52;;;;;;;;;;1740989;82;21531;-69
2022/02/15 10:39:05;;;;;;;5.40;2.70;;;;;;;;;;1741489;82;21020;-70
2022/02/15 10:41:34;;;;;;;4.45;2.42;;;;;;;;;;1738216;82;21038;-70
2022/02/15 10:44:00;;;;;;;5.95;3.50;;;;;;;;;;1736191;83;21043;-70
2022/02/15 10:46:28;;;;;;;4.60;2.62;;;;;;;;;;1682414;84;21014;-70
2022/02/15 10:48:54;;;;;;;4.10;2.90;;;;;;;;;;1733954;82;21038;-70
2022/02/15 10:51:20;;;;;;;3.40;2.50;;;;;;;;;;1731794;82;21437;-69
2022/02/15 10:53:46;;;;;;;6.72;2.98;;;;;;;;;;1732849;82;20984;-70
2022/02/15 10:56:12;;;;;;;4.12;2.22;;;;;;;;;;1695798;84;21005;-70
2022/02/15 10:58:38;;;;;;;3.75;2.35;;;;;;;;;;1736524;82;21525;-70
2022/02/15 11:01:04;;;;;;;5.03;2.42;;;;;;;;;;1734568;82;20976;-70
2022/02/15 11:03:32;;;;;;;5.85;3.40;;;;;;;;;;1686380;84;21095;-70
2022/02/15 11:05:58;;;;;;;4.55;2.47;;;;;;;;;;1735087;82;21036;-70
2022/02/15 11:08:24;;;;;;;5.78;3.08;;;;;;;;;;1739248;82;21005;-69
2022/02/15 11:10:52;;;;;;;6.62;3.10;;;;;;;;;;1731638;82;22123;-70
2022/02/15 11:13:19;;;;;;;4.53;2.50;;;;;;;;;;1692908;84;21584;-70
2022/02/15 11:15:50;;;;;;;6.33;2.75;;;;;;;;;;1738064;82;20994;-71
2022/02/15 11:18:19;;;;;;;5.50;2.83;;;;;;;;;;1685650;84;21060;-69
2022/02/15 11:20:54;;;;;;;5.75;3.00;;;;;;;;;;1731415;83;21403;-69
2022/02/15 11:23:22;;;;;;;9.23;3.80;;;;;;;;;;1681323;85;21088;-70
2022/02/15 11:25:48;;;;;;;8.38;3.80;;;;;;;;;;1735170;82;20985;-70
2022/02/15 11:28:15;;;;;;;6.20;3.15;;;;;;;;;;1728268;82;21025;-68
2022/02/15 11:30:44;;;;;;;4.42;2.92;;;;;;;;;;1724607;82;21092;-68
2022/02/15 11:33:10;;;;;;;2.50;1.90;;;;;;;;;;1714438;84;21037;-69
2022/02/15 11:35:36;;;;;;;5.53;2.72;;;;;;;;;;1730280;82;21034;-69
2022/02/15 11:38:10;;;;;;;7.10;3.77;;;;;;;;;;1742224;82;21060;-69
2022/02/15 11:40:37;;;;;;;8.60;3.77;;;;;;;;;;1722957;82;21016;-69
2022/02/15 11:43:03;;;;;;;5.85;3.10;;;;;;;;;;1743733;82;21585;-68
2022/02/15 11:45:29;;;;;;;5.55;2.90;;;;;;;;;;1744527;82;21056;-69
2022/02/15 11:48:05;;;;;;;4.97;3.20;;;;;;;;;;1705628;84;21090;-68
2022/02/15 11:50:42;;;;;;;3.08;2.37;;;;;;;;;;1693163;84;21519;-69
2022/02/15 11:53:08;;;;;;;5.20;3.02;;;;;;;;;;1691916;84;21006;-68
2022/02/15 11:55:35;;;;;;;7.45;3.50;;;;;;;;;;1691367;84;21060;-68
2022/02/15 11:58:02;;;;;;;5.25;2.90;;;;;;;;;;1696081;84;21043;-69
2022/02/15 12:00:32;;;;;;;5.60;2.90;;;;;;;;;;1670538;86;21096;-68
2022/02/15 12:02:58;;;;;;;4.22;2.47;;;;;;;;;;1672952;84;21080;-68
2022/02/15 12:05:27;;;;;;;5.22;2.87;;;;;;;;;;1670548;86;21619;-68
2022/02/15 12:07:54;;;;;;;4.62;2.40;;;;;;;;;;1675295;85;20996;-72
2022/02/15 12:10:21;;;;;;;4.45;2.70;;;;;;;;;;1670615;85;21027;-69
2022/02/15 12:12:49;;;;;;;4.85;2.95;;;;;;;;;;1669048;85;21031;-68
2022/02/15 12:15:15;;;;;;;5.67;3.02;;;;;;;;;;1670385;85;21043;-69
2022/02/15 12:17:42;;;;;;;5.97;3.17;;;;;;;;;;1670367;86;21079;-69
2022/02/15 12:20:12;;;;;;;6.47;3.27;;;;;;;;;;1671105;84;20984;-67
2022/02/15 12:22:40;;;;;;;5.05;2.90;;;;;;;;;;1669107;86;21126;-68
2022/02/15 12:25:26;;;;;;;6.50;3.05;;;;;;;;;;1668541;86;21507;-69
2022/02/15 12:27:52;;;;;;;7.42;4.05;;;;;;;;;;1670425;85;21032;-70
2022/02/15 12:30:18;;;;;;;7.47;3.65;;;;;;;;;;1682263;84;21012;-69
2022/02/15 12:32:45;;;;;;;4.10;2.80;;;;;;;;;;1670464;86;21099;-69
2022/02/15 12:35:13;;;;;;;4.12;2.77;;;;;;;;;;1670542;86;21099;-70
2022/02/15 12:37:39;;;;;;;4.30;2.60;;;;;;;;;;1670561;86;20997;-71
2022/02/15 12:40:05;;;;;;;6.72;3.95;;;;;;;;;;1671001;85;21112;-70
2022/02/15 12:42:34;;;;;;;7.92;3.40;;;;;;;;;;1670440;85;21079;-70
2022/02/15 12:45:04;;;;;;;8.18;4.40;;;;;;;;;;1670150;86;21017;-70
2022/02/15 12:47:32;;;;;;;5.53;3.40;;;;;;;;;;1669616;86;21626;-69
2022/02/15 12:49:58;;;;;;;5.35;3.00;;;;;;;;;;1687072;84;21097;-70
2022/02/15 12:52:26;;;;;;;4.70;3.10;;;;;;;;;;1687511;85;21086;-71
2022/02/15 12:54:52;;;;;;;6.17;3.72;;;;;;;;;;1671157;85;21063;-71
2022/02/15 12:57:19;;;;;;;5.05;2.77;;;;;;;;;;1670590;85;21011;-71
2022/02/15 12:59:45;;;;;;;5.62;2.92;;;;;;;;;;1672288;85;21081;-70
2022/02/15 13:02:12;;;;;;;4.08;2.80;;;;;;;;;;1687071;84;21172;-71
2022/02/15 13:04:45;;;;;;;4.40;2.70;;;;;;;;;;1672869;85;20985;-70
2022/02/15 13:07:11;;;;;;;5.10;3.08;;;;;;;;;;1670437;86;21091;-69
2022/02/15 13:09:39;;;;;;;8.63;4.92;;;;;;;;;;1670723;85;21048;-70
2022/02/15 13:12:08;;;;;;;8.40;4.72;;;;;;;;;;1684890;85;21603;-70
2022/02/15 13:14:34;;;;;;;6.60;2.98;;;;;;;;;;1672194;85;21099;-69
2022/02/15 13:17:02;;;;;;;4.95;2.90;;;;;;;;;;1668964;85;21045;-70
2022/02/15 13:19:36;;;;;;;5.33;2.92;;;;;;;;;;1642890;86;20979;-68
2022/02/15 13:22:10;;;;;;;7.58;4.03;;;;;;;;;;1657349;85;21111;-71
2022/02/15 13:24:36;;;;;;;5.87;3.10;;;;;;;;;;1665451;84;21091;-70
2022/02/15 13:27:02;;;;;;;4.10;2.67;;;;;;;;;;1661407;86;22106;-69
2022/02/15 13:29:33;;;;;;;7.37;3.27;;;;;;;;;;1664753;86;21035;-71
2022/02/15 13:31:59;;;;;;;5.25;3.20;;;;;;;;;;1683691;85;21104;-70
2022/02/15 13:34:35;;;;;;;7.70;2.92;;;;;;;;;;1676571;85;21099;-70
2022/02/15 13:37:03;;;;;;;6.05;3.55;;;;;;;;;;1667790;86;21055;-70
2022/02/15 13:39:29;;;;;;;7.20;3.12;;;;;;;;;;1670301;85;21527;-70
2022/02/15 13:41:56;;;;;;;6.45;3.92;;;;;;;;;;1669748;86;21035;-71
2022/02/15 13:44:22;;;;;;;5.15;3.10;;;;;;;;;;1674873;85;20997;-70
2022/02/15 13:46:48;;;;;;;6.90;3.75;;;;;;;;;;1664875;85;21012;-69
2022/02/15 13:49:14;;;;;;;7.78;3.37;;;;;;;;;;1664625;86;21167;-69
2022/02/15 13:51:40;;;;;;;4.08;2.47;;;;;;;;;;1660698;86;21036;-71
2022/02/15 13:54:07;;;;;;;5.67;3.10;;;;;;;;;;1671274;84;21675;-72
2022/02/15 13:56:33;;;;;;;6.85;3.10;;;;;;;;;;1666580;84;21040;-71
2022/02/15 13:59:05;;;;;;;6.97;3.47;;;;;;;;;;1668354;86;21531;-72
2022/02/15 14:01:29;;;;;;;6.85;3.12;;;;;;;;;;1668715;86;21166;-70
2022/02/15 14:03:57;;;;;;;8.15;3.37;;;;;;;;;;1667103;86;21023;-69
2022/02/15 14:06:23;;;;;;;5.30;2.98;;;;;;;;;;1672439;85;21044;-68
2022/02/15 14:08:49;;;;;;;6.47;3.62;;;;;;;;;;1669549;85;21103;-69
2022/02/15 14:11:15;;;;;;;4.78;2.62;;;;;;;;;;1669675;85;21059;-68
2022/02/15 14:13:41;;;;;;;5.08;2.80;;;;;;;;;;1658297;86;21588;-69
2022/02/15 14:16:07;;;;;;;9.18;3.95;;;;;;;;;;1676016;85;21093;-69
2022/02/15 14:18:33;;;;;;;6.20;4.03;;;;;;;;;;1672222;85;21509;-71
2022/02/15 14:20:59;;;;;;;4.20;2.67;;;;;;;;;;1668266;85;21064;-70
2022/02/15 14:23:26;;;;;;;7.37;3.85;;;;;;;;;;1670295;86;21025;-70
2022/02/15 14:25:52;;;;;;;7.28;2.83;;;;;;;;;;1673651;85;21493;-72
2022/02/15 14:28:19;;;;;;;6.15;3.67;;;;;;;;;;1669866;85;21634;-72
2022/02/15 14:30:46;;;;;;;5.80;3.70;;;;;;;;;;1671131;85;21091;-72
2022/02/15 14:33:13;;;;;;;7.12;3.67;;;;;;;;;;1667565;85;21560;-71
2022/02/15 14:35:40;;;;;;;7.60;3.85;;;;;;;;;;1737460;81;21036;-70
2022/02/15 14:38:06;;;;;;;7.62;3.87;;;;;;;;;;1732301;82;20999;-72
2022/02/15 14:40:34;;;;;;;5.58;3.35;;;;;;;;;;1735456;82;21072;-69
2022/02/15 14:43:00;;;;;;;5.95;3.62;;;;;;;;;;1722244;82;21021;-69
2022/02/15 14:45:26;;;;;;;8.53;5.00;;;;;;;;;;1732379;82;21479;-69
2022/02/15 14:47:52;;;;;;;6.17;3.50;;;;;;;;;;1736557;82;21013;-69
2022/02/15 14:50:18;;;;;;;8.88;4.37;;;;;;;;;;1683608;84;22210;-69
2022/02/15 14:52:44;;;;;;;6.35;3.25;;;;;;;;;;1717471;83;21157;-69